sensor_id;sensor_type;location;lat;lon;timestamp;P1;durP1;ratioP1;P2;durP2;ratioP2
72037;SDS011;59900;50.788;12.904;2022-11-20T00:01:25;26.08;;;10.93;;
72037;SDS011;59900;50.788;12.904;2022-11-20T00:03:52;26.23;;;12.25;;
72037;SDS011;59900;50.788;12.904;2022-11-20T00:06:18;27.17;;;12.10;;
72037;SDS011;59900;50.788;12.904;2022-11-20T00:08:45;27.37;;;10.83;;
72037;SDS011;59900;50.788;12.904;2022-11-20T00:13:37;34.38;;;12.00;;
72037;SDS011;59900;50.788;12.904;2022-11-20T00:16:04;27.08;;;11.93;;
72037;SDS011;59900;50.788;12.904;2022-11-20T00:18:32;24.03;;;10.30;;
72037;SDS011;59900;50.788;12.904;2022-11-20T00:21:02;24.80;;;10.05;;
72037;SDS011;59900;50.788;12.904;2022-11-20T00:23:38;23.33;;;10.82;;
72037;SDS011;59900;50.788;12.904;2022-11-20T00:26:04;20.67;;;9.73;;
72037;SDS011;59900;50.788;12.904;2022-11-20T00:28:31;20.00;;;9.65;;
72037;SDS011;59900;50.788;12.904;2022-11-20T00:31:00;25.83;;;11.53;;
72037;SDS011;59900;50.788;12.904;2022-11-20T00:33:27;28.48;;;11.05;;
72037;SDS011;59900;50.788;12.904;2022-11-20T00:35:52;22.33;;;10.23;;
72037;SDS011;59900;50.788;12.904;2022-11-20T00:38:18;24.40;;;10.83;;
72037;SDS011;59900;50.788;12.904;2022-11-20T00:40:43;23.23;;;10.57;;
72037;SDS011;59900;50.788;12.904;2022-11-20T00:43:08;26.63;;;11.60;;
72037;SDS011;59900;50.788;12.904;2022-11-20T00:45:33;27.60;;;11.80;;
72037;SDS011;59900;50.788;12.904;2022-11-20T00:47:59;26.50;;;11.63;;
72037;SDS011;59900;50.788;12.904;2022-11-20T00:50:24;25.53;;;11.50;;
72037;SDS011;59900;50.788;12.904;2022-11-20T00:52:49;22.63;;;11.13;;
72037;SDS011;59900;50.788;12.904;2022-11-20T00:55:14;24.17;;;10.00;;
72037;SDS011;59900;50.788;12.904;2022-11-20T00:57:40;29.70;;;10.37;;
72037;SDS011;59900;50.788;12.904;2022-11-20T01:00:05;24.33;;;10.93;;
72037;SDS011;59900;50.788;12.904;2022-11-20T01:02:31;25.35;;;9.20;;
72037;SDS011;59900;50.788;12.904;2022-11-20T01:04:56;25.63;;;10.43;;
72037;SDS011;59900;50.788;12.904;2022-11-20T01:07:21;53.00;;;21.97;;
72037;SDS011;59900;50.788;12.904;2022-11-20T01:09:47;34.73;;;12.93;;
72037;SDS011;59900;50.788;12.904;2022-11-20T01:12:12;31.90;;;12.13;;
72037;SDS011;59900;50.788;12.904;2022-11-20T01:14:37;29.43;;;12.07;;
72037;SDS011;59900;50.788;12.904;2022-11-20T01:17:03;24.43;;;11.50;;
72037;SDS011;59900;50.788;12.904;2022-11-20T01:19:28;26.43;;;11.10;;
72037;SDS011;59900;50.788;12.904;2022-11-20T01:21:53;25.93;;;10.67;;
72037;SDS011;59900;50.788;12.904;2022-11-20T01:24:19;25.67;;;11.57;;
72037;SDS011;59900;50.788;12.904;2022-11-20T01:26:47;22.87;;;11.43;;
72037;SDS011;59900;50.788;12.904;2022-11-20T01:29:17;25.88;;;11.43;;
72037;SDS011;59900;50.788;12.904;2022-11-20T01:31:47;22.25;;;11.35;;
72037;SDS011;59900;50.788;12.904;2022-11-20T01:34:14;26.50;;;10.67;;
72037;SDS011;59900;50.788;12.904;2022-11-20T01:36:43;24.48;;;10.10;;
72037;SDS011;59900;50.788;12.904;2022-11-20T01:39:16;20.75;;;9.43;;
72037;SDS011;59900;50.788;12.904;2022-11-20T01:41:44;22.63;;;9.23;;
72037;SDS011;59900;50.788;12.904;2022-11-20T01:49:58;20.48;;;8.88;;
72037;SDS011;59900;50.788;12.904;2022-11-20T01:52:30;20.77;;;10.10;;
72037;SDS011;59900;50.788;12.904;2022-11-20T01:55:08;22.00;;;9.37;;
72037;SDS011;59900;50.788;12.904;2022-11-20T01:57:37;18.38;;;7.72;;
72037;SDS011;59900;50.788;12.904;2022-11-20T02:00:09;20.25;;;8.88;;
72037;SDS011;59900;50.788;12.904;2022-11-20T02:02:37;22.30;;;8.60;;
72037;SDS011;59900;50.788;12.904;2022-11-20T02:05:47;19.17;;;8.43;;
72037;SDS011;59900;50.788;12.904;2022-11-20T02:08:11;19.13;;;8.33;;
72037;SDS011;59900;50.788;12.904;2022-11-20T02:10:37;22.63;;;8.85;;
72037;SDS011;59900;50.788;12.904;2022-11-20T02:13:02;18.63;;;8.83;;
72037;SDS011;59900;50.788;12.904;2022-11-20T02:15:57;19.10;;;9.45;;
72037;SDS011;59900;50.788;12.904;2022-11-20T02:18:22;19.63;;;8.97;;
72037;SDS011;59900;50.788;12.904;2022-11-20T02:20:49;20.35;;;8.38;;
72037;SDS011;59900;50.788;12.904;2022-11-20T02:23:25;21.92;;;8.63;;
72037;SDS011;59900;50.788;12.904;2022-11-20T02:25:57;19.52;;;7.60;;
72037;SDS011;59900;50.788;12.904;2022-11-20T02:28:26;17.17;;;7.67;;
72037;SDS011;59900;50.788;12.904;2022-11-20T02:30:52;22.00;;;8.70;;
72037;SDS011;59900;50.788;12.904;2022-11-20T02:33:17;23.97;;;9.30;;
72037;SDS011;59900;50.788;12.904;2022-11-20T02:35:43;20.07;;;9.27;;
72037;SDS011;59900;50.788;12.904;2022-11-20T02:38:10;18.35;;;8.27;;
72037;SDS011;59900;50.788;12.904;2022-11-20T02:40:36;20.70;;;9.23;;
72037;SDS011;59900;50.788;12.904;2022-11-20T02:43:01;22.00;;;9.27;;
72037;SDS011;59900;50.788;12.904;2022-11-20T02:45:26;19.60;;;8.27;;
72037;SDS011;59900;50.788;12.904;2022-11-20T02:47:52;21.50;;;10.37;;
72037;SDS011;59900;50.788;12.904;2022-11-20T02:50:17;17.43;;;8.13;;
72037;SDS011;59900;50.788;12.904;2022-11-20T02:52:42;20.93;;;8.87;;
72037;SDS011;59900;50.788;12.904;2022-11-20T02:55:08;22.37;;;9.00;;
72037;SDS011;59900;50.788;12.904;2022-11-20T02:57:33;21.87;;;9.83;;
72037;SDS011;59900;50.788;12.904;2022-11-20T02:59:59;20.37;;;9.23;;
72037;SDS011;59900;50.788;12.904;2022-11-20T03:02:24;17.90;;;7.73;;
72037;SDS011;59900;50.788;12.904;2022-11-20T03:04:49;19.70;;;8.77;;
72037;SDS011;59900;50.788;12.904;2022-11-20T03:07:14;20.17;;;8.40;;
72037;SDS011;59900;50.788;12.904;2022-11-20T03:09:40;19.97;;;8.57;;
72037;SDS011;59900;50.788;12.904;2022-11-20T03:12:05;23.77;;;8.83;;
72037;SDS011;59900;50.788;12.904;2022-11-20T03:14:31;19.07;;;8.67;;
72037;SDS011;59900;50.788;12.904;2022-11-20T03:16:56;18.20;;;7.50;;
72037;SDS011;59900;50.788;12.904;2022-11-20T03:19:21;18.63;;;8.77;;
72037;SDS011;59900;50.788;12.904;2022-11-20T03:21:47;19.80;;;8.60;;
72037;SDS011;59900;50.788;12.904;2022-11-20T03:24:13;18.10;;;8.30;;
72037;SDS011;59900;50.788;12.904;2022-11-20T03:26:38;21.92;;;8.63;;
72037;SDS011;59900;50.788;12.904;2022-11-20T03:29:04;20.43;;;9.53;;
72037;SDS011;59900;50.788;12.904;2022-11-20T03:31:33;20.88;;;8.65;;
72037;SDS011;59900;50.788;12.904;2022-11-20T03:34:05;24.08;;;9.70;;
72037;SDS011;59900;50.788;12.904;2022-11-20T03:36:30;19.93;;;7.97;;
72037;SDS011;59900;50.788;12.904;2022-11-20T03:38:56;24.40;;;10.27;;
72037;SDS011;59900;50.788;12.904;2022-11-20T03:41:23;23.08;;;10.13;;
72037;SDS011;59900;50.788;12.904;2022-11-20T03:43:50;23.33;;;10.77;;
72037;SDS011;59900;50.788;12.904;2022-11-20T03:46:17;20.13;;;9.60;;
72037;SDS011;59900;50.788;12.904;2022-11-20T03:48:43;24.02;;;9.48;;
72037;SDS011;59900;50.788;12.904;2022-11-20T03:51:09;22.20;;;8.83;;
72037;SDS011;59900;50.788;12.904;2022-11-20T03:53:36;19.80;;;9.23;;
72037;SDS011;59900;50.788;12.904;2022-11-20T03:56:02;23.27;;;8.87;;
72037;SDS011;59900;50.788;12.904;2022-11-20T03:58:28;23.35;;;9.55;;
72037;SDS011;59900;50.788;12.904;2022-11-20T04:00:53;21.50;;;8.33;;
72037;SDS011;59900;50.788;12.904;2022-11-20T04:03:18;21.33;;;9.00;;
72037;SDS011;59900;50.788;12.904;2022-11-20T04:05:44;21.67;;;8.60;;
72037;SDS011;59900;50.788;12.904;2022-11-20T04:08:09;23.23;;;9.20;;
72037;SDS011;59900;50.788;12.904;2022-11-20T04:10:34;21.97;;;9.20;;
72037;SDS011;59900;50.788;12.904;2022-11-20T04:13:00;19.90;;;8.60;;
72037;SDS011;59900;50.788;12.904;2022-11-20T04:15:25;20.30;;;9.00;;
72037;SDS011;59900;50.788;12.904;2022-11-20T04:17:50;19.53;;;9.77;;
72037;SDS011;59900;50.788;12.904;2022-11-20T04:20:15;22.50;;;9.93;;
72037;SDS011;59900;50.788;12.904;2022-11-20T04:22:41;18.53;;;8.43;;
72037;SDS011;59900;50.788;12.904;2022-11-20T04:25:06;19.10;;;9.17;;
72037;SDS011;59900;50.788;12.904;2022-11-20T04:27:32;23.57;;;9.47;;
72037;SDS011;59900;50.788;12.904;2022-11-20T04:29:57;20.27;;;9.83;;
72037;SDS011;59900;50.788;12.904;2022-11-20T04:32:22;23.37;;;9.83;;
72037;SDS011;59900;50.788;12.904;2022-11-20T04:34:47;23.80;;;8.67;;
72037;SDS011;59900;50.788;12.904;2022-11-20T04:37:13;21.47;;;9.10;;
72037;SDS011;59900;50.788;12.904;2022-11-20T04:39:38;22.23;;;8.30;;
72037;SDS011;59900;50.788;12.904;2022-11-20T04:42:03;19.67;;;8.30;;
72037;SDS011;59900;50.788;12.904;2022-11-20T04:44:51;18.25;;;7.50;;
72037;SDS011;59900;50.788;12.904;2022-11-20T04:47:17;17.43;;;8.27;;
72037;SDS011;59900;50.788;12.904;2022-11-20T04:49:42;18.83;;;9.63;;
72037;SDS011;59900;50.788;12.904;2022-11-20T04:52:07;22.47;;;8.67;;
72037;SDS011;59900;50.788;12.904;2022-11-20T04:54:32;20.37;;;9.27;;
72037;SDS011;59900;50.788;12.904;2022-11-20T04:56:58;18.97;;;7.53;;
72037;SDS011;59900;50.788;12.904;2022-11-20T04:59:23;20.00;;;8.17;;
72037;SDS011;59900;50.788;12.904;2022-11-20T05:01:48;20.73;;;9.70;;
72037;SDS011;59900;50.788;12.904;2022-11-20T05:04:14;25.90;;;9.27;;
72037;SDS011;59900;50.788;12.904;2022-11-20T05:06:39;18.73;;;9.53;;
72037;SDS011;59900;50.788;12.904;2022-11-20T05:09:04;19.73;;;8.73;;
72037;SDS011;59900;50.788;12.904;2022-11-20T05:11:31;17.13;;;7.50;;
72037;SDS011;59900;50.788;12.904;2022-11-20T05:13:57;18.85;;;7.43;;
72037;SDS011;59900;50.788;12.904;2022-11-20T05:16:24;15.65;;;7.32;;
72037;SDS011;59900;50.788;12.904;2022-11-20T05:18:49;15.40;;;7.53;;
72037;SDS011;59900;50.788;12.904;2022-11-20T05:21:15;14.65;;;6.75;;
72037;SDS011;59900;50.788;12.904;2022-11-20T05:23:41;17.80;;;7.55;;
72037;SDS011;59900;50.788;12.904;2022-11-20T05:26:08;15.52;;;7.22;;
72037;SDS011;59900;50.788;12.904;2022-11-20T05:28:38;16.50;;;6.33;;
72037;SDS011;59900;50.788;12.904;2022-11-20T05:31:13;18.40;;;8.03;;
72037;SDS011;59900;50.788;12.904;2022-11-20T05:33:41;17.17;;;7.57;;
72037;SDS011;59900;50.788;12.904;2022-11-20T05:36:07;20.38;;;8.25;;
72037;SDS011;59900;50.788;12.904;2022-11-20T05:38:34;14.55;;;6.72;;
72037;SDS011;59900;50.788;12.904;2022-11-20T05:41:03;17.73;;;7.33;;
72037;SDS011;59900;50.788;12.904;2022-11-20T05:43:39;19.10;;;7.20;;
72037;SDS011;59900;50.788;12.904;2022-11-20T05:46:06;16.50;;;7.20;;
72037;SDS011;59900;50.788;12.904;2022-11-20T05:48:33;14.83;;;6.57;;
72037;SDS011;59900;50.788;12.904;2022-11-20T05:51:00;17.23;;;7.03;;
72037;SDS011;59900;50.788;12.904;2022-11-20T05:53:27;16.58;;;7.63;;
72037;SDS011;59900;50.788;12.904;2022-11-20T05:55:59;19.63;;;7.38;;
72037;SDS011;59900;50.788;12.904;2022-11-20T05:58:26;15.65;;;7.25;;
72037;SDS011;59900;50.788;12.904;2022-11-20T06:00:51;18.00;;;7.67;;
72037;SDS011;59900;50.788;12.904;2022-11-20T06:03:16;15.90;;;7.27;;
72037;SDS011;59900;50.788;12.904;2022-11-20T06:05:42;14.03;;;5.90;;
72037;SDS011;59900;50.788;12.904;2022-11-20T06:08:07;16.60;;;6.87;;
72037;SDS011;59900;50.788;12.904;2022-11-20T06:10:32;12.77;;;5.57;;
72037;SDS011;59900;50.788;12.904;2022-11-20T06:12:57;13.93;;;6.67;;
72037;SDS011;59900;50.788;12.904;2022-11-20T06:15:23;15.20;;;7.10;;
72037;SDS011;59900;50.788;12.904;2022-11-20T06:17:51;16.00;;;6.30;;
72037;SDS011;59900;50.788;12.904;2022-11-20T06:20:20;15.15;;;6.55;;
72037;SDS011;59900;50.788;12.904;2022-11-20T06:22:46;14.25;;;6.22;;
72037;SDS011;59900;50.788;12.904;2022-11-20T06:25:12;16.37;;;6.67;;
72037;SDS011;59900;50.788;12.904;2022-11-20T06:27:37;17.43;;;6.90;;
72037;SDS011;59900;50.788;12.904;2022-11-20T06:30:03;15.53;;;7.00;;
72037;SDS011;59900;50.788;12.904;2022-11-20T06:32:29;15.50;;;6.82;;
72037;SDS011;59900;50.788;12.904;2022-11-20T06:34:54;16.90;;;7.43;;
72037;SDS011;59900;50.788;12.904;2022-11-20T06:37:19;17.13;;;7.13;;
72037;SDS011;59900;50.788;12.904;2022-11-20T06:39:44;13.50;;;6.33;;
72037;SDS011;59900;50.788;12.904;2022-11-20T06:42:10;14.90;;;5.90;;
72037;SDS011;59900;50.788;12.904;2022-11-20T06:44:35;12.30;;;6.07;;
72037;SDS011;59900;50.788;12.904;2022-11-20T06:47:00;13.40;;;6.17;;
72037;SDS011;59900;50.788;12.904;2022-11-20T06:49:26;15.00;;;6.07;;
72037;SDS011;59900;50.788;12.904;2022-11-20T06:51:51;12.43;;;6.50;;
72037;SDS011;59900;50.788;12.904;2022-11-20T06:54:16;12.52;;;6.18;;
72037;SDS011;59900;50.788;12.904;2022-11-20T06:56:42;13.13;;;5.47;;
72037;SDS011;59900;50.788;12.904;2022-11-20T06:59:07;11.37;;;5.57;;
72037;SDS011;59900;50.788;12.904;2022-11-20T07:01:32;12.50;;;5.80;;
72037;SDS011;59900;50.788;12.904;2022-11-20T07:03:58;11.33;;;4.67;;
72037;SDS011;59900;50.788;12.904;2022-11-20T07:06:23;13.23;;;6.17;;
72037;SDS011;59900;50.788;12.904;2022-11-20T07:08:50;11.43;;;6.20;;
72037;SDS011;59900;50.788;12.904;2022-11-20T07:11:17;12.95;;;5.80;;
72037;SDS011;59900;50.788;12.904;2022-11-20T07:13:42;17.13;;;5.60;;
72037;SDS011;59900;50.788;12.904;2022-11-20T07:16:08;12.17;;;5.63;;
72037;SDS011;59900;50.788;12.904;2022-11-20T07:18:33;12.20;;;5.28;;
72037;SDS011;59900;50.788;12.904;2022-11-20T07:21:00;14.15;;;5.95;;
72037;SDS011;59900;50.788;12.904;2022-11-20T07:23:30;12.38;;;5.13;;
72037;SDS011;59900;50.788;12.904;2022-11-20T07:25:55;12.23;;;5.83;;
72037;SDS011;59900;50.788;12.904;2022-11-20T07:28:20;11.97;;;5.77;;
72037;SDS011;59900;50.788;12.904;2022-11-20T07:30:49;13.10;;;5.27;;
72037;SDS011;59900;50.788;12.904;2022-11-20T07:33:18;11.30;;;4.97;;
72037;SDS011;59900;50.788;12.904;2022-11-20T07:35:43;10.70;;;4.80;;
72037;SDS011;59900;50.788;12.904;2022-11-20T07:38:08;12.87;;;5.47;;
72037;SDS011;59900;50.788;12.904;2022-11-20T07:40:34;14.53;;;6.00;;
72037;SDS011;59900;50.788;12.904;2022-11-20T07:42:59;14.33;;;6.00;;
72037;SDS011;59900;50.788;12.904;2022-11-20T07:45:24;11.33;;;5.47;;
72037;SDS011;59900;50.788;12.904;2022-11-20T07:47:50;12.50;;;5.43;;
72037;SDS011;59900;50.788;12.904;2022-11-20T07:50:15;13.60;;;5.57;;
72037;SDS011;59900;50.788;12.904;2022-11-20T07:52:41;11.30;;;4.85;;
72037;SDS011;59900;50.788;12.904;2022-11-20T07:55:07;12.50;;;5.50;;
72037;SDS011;59900;50.788;12.904;2022-11-20T07:57:33;11.20;;;5.45;;
72037;SDS011;59900;50.788;12.904;2022-11-20T07:59:59;14.30;;;6.13;;
72037;SDS011;59900;50.788;12.904;2022-11-20T08:02:24;10.73;;;5.10;;
72037;SDS011;59900;50.788;12.904;2022-11-20T08:04:51;15.47;;;7.50;;
72037;SDS011;59900;50.788;12.904;2022-11-20T08:07:19;16.63;;;6.63;;
72037;SDS011;59900;50.788;12.904;2022-11-20T08:09:44;15.57;;;6.87;;
72037;SDS011;59900;50.788;12.904;2022-11-20T08:12:16;15.70;;;6.53;;
72037;SDS011;59900;50.788;12.904;2022-11-20T08:15:02;12.93;;;6.53;;
72037;SDS011;59900;50.788;12.904;2022-11-20T08:17:28;14.23;;;6.57;;
72037;SDS011;59900;50.788;12.904;2022-11-20T08:19:54;12.40;;;5.77;;
72037;SDS011;59900;50.788;12.904;2022-11-20T08:22:19;15.47;;;6.33;;
72037;SDS011;59900;50.788;12.904;2022-11-20T08:24:45;13.20;;;5.63;;
72037;SDS011;59900;50.788;12.904;2022-11-20T08:27:10;15.77;;;6.23;;
72037;SDS011;59900;50.788;12.904;2022-11-20T08:29:35;13.40;;;5.57;;
72037;SDS011;59900;50.788;12.904;2022-11-20T08:32:01;13.50;;;6.03;;
72037;SDS011;59900;50.788;12.904;2022-11-20T08:34:26;13.33;;;5.87;;
72037;SDS011;59900;50.788;12.904;2022-11-20T08:36:51;15.20;;;5.57;;
72037;SDS011;59900;50.788;12.904;2022-11-20T08:39:16;14.33;;;6.03;;
72037;SDS011;59900;50.788;12.904;2022-11-20T08:41:42;13.57;;;5.53;;
72037;SDS011;59900;50.788;12.904;2022-11-20T08:44:07;11.03;;;4.83;;
72037;SDS011;59900;50.788;12.904;2022-11-20T08:46:36;9.43;;;4.47;;
72037;SDS011;59900;50.788;12.904;2022-11-20T08:49:04;11.98;;;5.13;;
72037;SDS011;59900;50.788;12.904;2022-11-20T08:51:31;11.25;;;5.15;;
72037;SDS011;59900;50.788;12.904;2022-11-20T08:53:56;11.20;;;5.37;;
72037;SDS011;59900;50.788;12.904;2022-11-20T08:56:22;12.20;;;4.53;;
72037;SDS011;59900;50.788;12.904;2022-11-20T08:58:47;13.55;;;5.60;;
72037;SDS011;59900;50.788;12.904;2022-11-20T09:01:12;13.43;;;6.27;;
72037;SDS011;59900;50.788;12.904;2022-11-20T09:03:37;11.87;;;5.97;;
72037;SDS011;59900;50.788;12.904;2022-11-20T09:06:04;13.93;;;5.97;;
72037;SDS011;59900;50.788;12.904;2022-11-20T09:08:31;12.57;;;5.40;;
72037;SDS011;59900;50.788;12.904;2022-11-20T09:10:57;11.93;;;5.07;;
72037;SDS011;59900;50.788;12.904;2022-11-20T09:13:24;12.00;;;5.38;;
72037;SDS011;59900;50.788;12.904;2022-11-20T09:15:56;11.68;;;5.28;;
72037;SDS011;59900;50.788;12.904;2022-11-20T09:18:24;10.68;;;4.75;;
72037;SDS011;59900;50.788;12.904;2022-11-20T09:20:49;12.73;;;5.97;;
72037;SDS011;59900;50.788;12.904;2022-11-20T09:23:15;13.15;;;5.18;;
72037;SDS011;59900;50.788;12.904;2022-11-20T09:25:41;10.27;;;4.90;;
72037;SDS011;59900;50.788;12.904;2022-11-20T09:28:07;14.95;;;5.97;;
72037;SDS011;59900;50.788;12.904;2022-11-20T09:30:32;17.30;;;5.93;;
72037;SDS011;59900;50.788;12.904;2022-11-20T09:32:57;11.73;;;6.20;;
72037;SDS011;59900;50.788;12.904;2022-11-20T09:35:23;13.33;;;5.90;;
72037;SDS011;59900;50.788;12.904;2022-11-20T09:37:48;13.37;;;6.13;;
72037;SDS011;59900;50.788;12.904;2022-11-20T09:40:24;14.40;;;5.47;;
72037;SDS011;59900;50.788;12.904;2022-11-20T09:43:02;14.65;;;6.68;;
72037;SDS011;59900;50.788;12.904;2022-11-20T09:45:42;14.43;;;5.80;;
72037;SDS011;59900;50.788;12.904;2022-11-20T09:48:15;13.38;;;5.68;;
72037;SDS011;59900;50.788;12.904;2022-11-20T09:51:04;15.48;;;5.40;;
72037;SDS011;59900;50.788;12.904;2022-11-20T09:54:00;13.32;;;6.25;;
72037;SDS011;59900;50.788;12.904;2022-11-20T09:56:53;14.43;;;6.68;;
72037;SDS011;59900;50.788;12.904;2022-11-20T10:01:59;19.10;;;8.55;;
72037;SDS011;59900;50.788;12.904;2022-11-20T10:04:25;19.92;;;8.75;;
72037;SDS011;59900;50.788;12.904;2022-11-20T10:07:04;19.30;;;8.70;;
72037;SDS011;59900;50.788;12.904;2022-11-20T10:09:43;18.80;;;8.18;;
72037;SDS011;59900;50.788;12.904;2022-11-20T10:18:23;17.33;;;7.55;;
72037;SDS011;59900;50.788;12.904;2022-11-20T10:21:07;18.98;;;8.30;;
72037;SDS011;59900;50.788;12.904;2022-11-20T10:29:29;14.00;;;6.07;;
72037;SDS011;59900;50.788;12.904;2022-11-20T10:32:07;17.35;;;6.80;;
72037;SDS011;59900;50.788;12.904;2022-11-20T10:37:30;14.65;;;6.43;;
72037;SDS011;59900;50.788;12.904;2022-11-20T10:42:37;17.90;;;8.15;;
72037;SDS011;59900;50.788;12.904;2022-11-20T10:45:15;17.88;;;7.47;;
72037;SDS011;59900;50.788;12.904;2022-11-20T10:47:47;16.75;;;7.03;;
72037;SDS011;59900;50.788;12.904;2022-11-20T10:50:14;16.98;;;7.63;;
72037;SDS011;59900;50.788;12.904;2022-11-20T10:55:40;16.85;;;7.63;;
72037;SDS011;59900;50.788;12.904;2022-11-20T10:58:49;16.75;;;7.25;;
72037;SDS011;59900;50.788;12.904;2022-11-20T11:01:20;21.55;;;7.72;;
72037;SDS011;59900;50.788;12.904;2022-11-20T11:03:48;19.92;;;7.88;;
72037;SDS011;59900;50.788;12.904;2022-11-20T11:06:21;17.47;;;7.80;;
72037;SDS011;59900;50.788;12.904;2022-11-20T11:08:58;18.38;;;8.07;;
72037;SDS011;59900;50.788;12.904;2022-11-20T11:11:32;16.75;;;7.10;;
72037;SDS011;59900;50.788;12.904;2022-11-20T11:14:08;19.75;;;7.90;;
72037;SDS011;59900;50.788;12.904;2022-11-20T11:19:20;17.97;;;7.90;;
72037;SDS011;59900;50.788;12.904;2022-11-20T11:21:46;16.17;;;7.00;;
72037;SDS011;59900;50.788;12.904;2022-11-20T11:24:23;18.38;;;7.75;;
72037;SDS011;59900;50.788;12.904;2022-11-20T11:26:51;17.90;;;7.43;;
72037;SDS011;59900;50.788;12.904;2022-11-20T11:29:18;19.13;;;7.15;;
72037;SDS011;59900;50.788;12.904;2022-11-20T11:31:43;17.07;;;8.07;;
72037;SDS011;59900;50.788;12.904;2022-11-20T11:34:13;20.57;;;7.13;;
72037;SDS011;59900;50.788;12.904;2022-11-20T11:36:40;17.65;;;6.90;;
72037;SDS011;59900;50.788;12.904;2022-11-20T11:39:08;20.83;;;8.25;;
72037;SDS011;59900;50.788;12.904;2022-11-20T11:41:39;16.30;;;7.07;;
72037;SDS011;59900;50.788;12.904;2022-11-20T11:44:18;19.55;;;7.97;;
72037;SDS011;59900;50.788;12.904;2022-11-20T11:47:05;21.50;;;7.33;;
72037;SDS011;59900;50.788;12.904;2022-11-20T11:49:36;19.58;;;7.80;;
72037;SDS011;59900;50.788;12.904;2022-11-20T11:52:07;18.23;;;8.00;;
72037;SDS011;59900;50.788;12.904;2022-11-20T11:54:37;20.02;;;8.15;;
72037;SDS011;59900;50.788;12.904;2022-11-20T11:57:20;18.92;;;7.68;;
72037;SDS011;59900;50.788;12.904;2022-11-20T11:59:59;18.48;;;7.63;;
72037;SDS011;59900;50.788;12.904;2022-11-20T12:05:26;18.73;;;7.80;;
72037;SDS011;59900;50.788;12.904;2022-11-20T12:07:58;17.92;;;7.85;;
72037;SDS011;59900;50.788;12.904;2022-11-20T12:10:45;18.10;;;8.20;;
72037;SDS011;59900;50.788;12.904;2022-11-20T12:13:21;16.30;;;7.32;;
72037;SDS011;59900;50.788;12.904;2022-11-20T12:15:58;18.42;;;7.15;;
72037;SDS011;59900;50.788;12.904;2022-11-20T12:18:24;16.63;;;6.93;;
72037;SDS011;59900;50.788;12.904;2022-11-20T12:20:55;17.57;;;8.07;;
72037;SDS011;59900;50.788;12.904;2022-11-20T12:23:34;15.82;;;7.85;;
72037;SDS011;59900;50.788;12.904;2022-11-20T12:26:13;17.67;;;7.25;;
72037;SDS011;59900;50.788;12.904;2022-11-20T12:29:02;17.90;;;6.72;;
72037;SDS011;59900;50.788;12.904;2022-11-20T12:31:32;15.37;;;6.63;;
72037;SDS011;59900;50.788;12.904;2022-11-20T12:37:00;17.27;;;7.65;;
72037;SDS011;59900;50.788;12.904;2022-11-20T12:39:42;20.63;;;7.95;;
72037;SDS011;59900;50.788;12.904;2022-11-20T12:45:10;20.20;;;7.28;;
72037;SDS011;59900;50.788;12.904;2022-11-20T12:50:44;18.40;;;8.53;;
72037;SDS011;59900;50.788;12.904;2022-11-20T12:53:17;18.83;;;7.05;;
72037;SDS011;59900;50.788;12.904;2022-11-20T12:58:44;19.83;;;8.65;;
72037;SDS011;59900;50.788;12.904;2022-11-20T13:01:29;20.10;;;8.43;;
72037;SDS011;59900;50.788;12.904;2022-11-20T13:06:51;22.70;;;8.40;;
72037;SDS011;59900;50.788;12.904;2022-11-20T13:09:18;20.63;;;8.43;;
72037;SDS011;59900;50.788;12.904;2022-11-20T13:11:58;19.70;;;8.68;;
72037;SDS011;59900;50.788;12.904;2022-11-20T13:14:40;19.00;;;7.95;;
72037;SDS011;59900;50.788;12.904;2022-11-20T13:17:13;21.95;;;8.90;;
72037;SDS011;59900;50.788;12.904;2022-11-20T13:19:53;19.88;;;8.75;;
72037;SDS011;59900;50.788;12.904;2022-11-20T13:22:24;19.60;;;8.43;;
72037;SDS011;59900;50.788;12.904;2022-11-20T13:24:54;22.08;;;9.65;;
72037;SDS011;59900;50.788;12.904;2022-11-20T13:27:23;19.10;;;8.00;;
72037;SDS011;59900;50.788;12.904;2022-11-20T13:29:58;20.70;;;8.40;;
72037;SDS011;59900;50.788;12.904;2022-11-20T13:32:26;22.88;;;8.73;;
72037;SDS011;59900;50.788;12.904;2022-11-20T13:35:01;20.75;;;8.32;;
72037;SDS011;59900;50.788;12.904;2022-11-20T13:46:07;19.77;;;8.40;;
72037;SDS011;59900;50.788;12.904;2022-11-20T13:48:38;19.48;;;8.05;;
72037;SDS011;59900;50.788;12.904;2022-11-20T13:51:07;21.80;;;7.72;;
72037;SDS011;59900;50.788;12.904;2022-11-20T13:53:56;19.00;;;7.70;;
72037;SDS011;59900;50.788;12.904;2022-11-20T13:56:34;16.88;;;6.63;;
72037;SDS011;59900;50.788;12.904;2022-11-20T14:02:12;19.33;;;7.75;;
72037;SDS011;59900;50.788;12.904;2022-11-20T14:04:41;18.90;;;8.05;;
72037;SDS011;59900;50.788;12.904;2022-11-20T14:07:09;20.53;;;8.30;;
72037;SDS011;59900;50.788;12.904;2022-11-20T14:09:36;17.67;;;7.45;;
72037;SDS011;59900;50.788;12.904;2022-11-20T14:12:02;19.13;;;8.67;;
72037;SDS011;59900;50.788;12.904;2022-11-20T14:14:29;19.67;;;7.97;;
72037;SDS011;59900;50.788;12.904;2022-11-20T14:19:44;19.15;;;8.65;;
72037;SDS011;59900;50.788;12.904;2022-11-20T14:25:04;20.13;;;8.63;;
72037;SDS011;59900;50.788;12.904;2022-11-20T14:27:40;19.70;;;8.48;;
72037;SDS011;59900;50.788;12.904;2022-11-20T14:30:17;20.85;;;8.18;;
72037;SDS011;59900;50.788;12.904;2022-11-20T14:32:45;18.50;;;7.47;;
72037;SDS011;59900;50.788;12.904;2022-11-20T14:35:24;23.40;;;9.05;;
72037;SDS011;59900;50.788;12.904;2022-11-20T14:37:51;18.23;;;8.37;;
72037;SDS011;59900;50.788;12.904;2022-11-20T14:40:34;22.00;;;8.35;;
72037;SDS011;59900;50.788;12.904;2022-11-20T14:43:00;22.10;;;8.40;;
72037;SDS011;59900;50.788;12.904;2022-11-20T14:45:26;18.55;;;7.65;;
72037;SDS011;59900;50.788;12.904;2022-11-20T14:47:53;17.13;;;8.07;;
72037;SDS011;59900;50.788;12.904;2022-11-20T14:52:53;21.63;;;8.38;;
72037;SDS011;59900;50.788;12.904;2022-11-20T14:58:05;21.48;;;8.65;;
72037;SDS011;59900;50.788;12.904;2022-11-20T15:00:52;18.40;;;8.23;;
72037;SDS011;59900;50.788;12.904;2022-11-20T15:06:07;18.08;;;7.80;;
72037;SDS011;59900;50.788;12.904;2022-11-20T15:08:35;18.70;;;8.00;;
72037;SDS011;59900;50.788;12.904;2022-11-20T15:11:01;18.53;;;7.90;;
72037;SDS011;59900;50.788;12.904;2022-11-20T15:13:34;17.40;;;8.18;;
72037;SDS011;59900;50.788;12.904;2022-11-20T15:16:02;16.95;;;8.23;;
72037;SDS011;59900;50.788;12.904;2022-11-20T15:18:30;17.52;;;8.18;;
72037;SDS011;59900;50.788;12.904;2022-11-20T15:20:58;17.97;;;7.37;;
72037;SDS011;59900;50.788;12.904;2022-11-20T15:23:27;16.02;;;7.32;;
72037;SDS011;59900;50.788;12.904;2022-11-20T15:25:53;16.73;;;7.03;;
72037;SDS011;59900;50.788;12.904;2022-11-20T15:30:52;17.73;;;7.72;;
72037;SDS011;59900;50.788;12.904;2022-11-20T15:33:17;16.30;;;7.07;;
72037;SDS011;59900;50.788;12.904;2022-11-20T15:35:43;16.88;;;7.70;;
72037;SDS011;59900;50.788;12.904;2022-11-20T15:38:09;15.50;;;7.10;;
72037;SDS011;59900;50.788;12.904;2022-11-20T15:40:35;14.50;;;6.37;;
72037;SDS011;59900;50.788;12.904;2022-11-20T15:43:01;19.98;;;8.05;;
72037;SDS011;59900;50.788;12.904;2022-11-20T15:45:51;13.87;;;6.80;;
72037;SDS011;59900;50.788;12.904;2022-11-20T15:48:17;14.55;;;6.30;;
72037;SDS011;59900;50.788;12.904;2022-11-20T15:50:50;16.40;;;6.82;;